sensor_id;sensor_type;location;lat;lon;timestamp;P1;durP1;ratioP1;P2;durP2;ratioP2
16426;SDS011;8322;-33.900;151.170;2022-11-03T00:02:11;2.22;;;0.85;;
16426;SDS011;8322;-33.900;151.170;2022-11-03T00:04:41;2.67;;;0.80;;
16426;SDS011;8322;-33.900;151.170;2022-11-03T00:07:11;3.50;;;0.82;;
16426;SDS011;8322;-33.900;151.170;2022-11-03T00:09:43;1.13;;;0.50;;
16426;SDS011;8322;-33.900;151.170;2022-11-03T00:12:12;0.45;;;0.40;;
16426;SDS011;8322;-33.900;151.170;2022-11-03T00:14:42;2.42;;;0.50;;
16426;SDS011;8322;-33.900;151.170;2022-11-03T00:17:11;0.98;;;0.57;;
16426;SDS011;8322;-33.900;151.170;2022-11-03T00:19:41;0.98;;;0.40;;
16426;SDS011;8322;-33.900;151.170;2022-11-03T00:22:10;0.88;;;0.40;;
16426;SDS011;8322;-33.900;151.170;2022-11-03T00:24:40;1.00;;;0.55;;
16426;SDS011;8322;-33.900;151.170;2022-11-03T00:27:11;1.58;;;0.77;;
16426;SDS011;8322;-33.900;151.170;2022-11-03T00:29:41;1.05;;;0.45;;
16426;SDS011;8322;-33.900;151.170;2022-11-03T00:32:10;0.98;;;0.50;;
16426;SDS011;8322;-33.900;151.170;2022-11-03T00:34:40;2.00;;;0.60;;
16426;SDS011;8322;-33.900;151.170;2022-11-03T00:37:09;1.75;;;0.63;;
16426;SDS011;8322;-33.900;151.170;2022-11-03T00:39:39;1.67;;;0.50;;
16426;SDS011;8322;-33.900;151.170;2022-11-03T00:42:08;4.22;;;0.60;;
16426;SDS011;8322;-33.900;151.170;2022-11-03T00:44:40;1.25;;;0.50;;
16426;SDS011;8322;-33.900;151.170;2022-11-03T00:47:09;1.70;;;0.60;;
16426;SDS011;8322;-33.900;151.170;2022-11-03T00:49:39;2.13;;;0.40;;
16426;SDS011;8322;-33.900;151.170;2022-11-03T00:52:09;0.98;;;0.63;;
16426;SDS011;8322;-33.900;151.170;2022-11-03T00:54:38;1.67;;;0.60;;
16426;SDS011;8322;-33.900;151.170;2022-11-03T00:57:08;1.73;;;0.50;;
16426;SDS011;8322;-33.900;151.170;2022-11-03T00:59:40;2.08;;;0.63;;
16426;SDS011;8322;-33.900;151.170;2022-11-03T01:02:09;1.35;;;0.50;;
16426;SDS011;8322;-33.900;151.170;2022-11-03T01:04:39;1.70;;;0.68;;
16426;SDS011;8322;-33.900;151.170;2022-11-03T01:07:27;2.03;;;0.60;;
16426;SDS011;8322;-33.900;151.170;2022-11-03T01:09:57;1.80;;;0.50;;
16426;SDS011;8322;-33.900;151.170;2022-11-03T01:12:26;2.63;;;0.90;;
16426;SDS011;8322;-33.900;151.170;2022-11-03T01:14:57;3.65;;;0.70;;
16426;SDS011;8322;-33.900;151.170;2022-11-03T01:17:27;2.03;;;0.60;;
16426;SDS011;8322;-33.900;151.170;2022-11-03T01:19:57;1.17;;;0.60;;
16426;SDS011;8322;-33.900;151.170;2022-11-03T01:22:27;2.80;;;0.50;;
16426;SDS011;8322;-33.900;151.170;2022-11-03T01:24:56;1.42;;;0.50;;
16426;SDS011;8322;-33.900;151.170;2022-11-03T01:27:26;1.65;;;0.45;;
16426;SDS011;8322;-33.900;151.170;2022-11-03T01:29:57;1.02;;;0.40;;
16426;SDS011;8322;-33.900;151.170;2022-11-03T01:32:27;1.15;;;0.50;;
16426;SDS011;8322;-33.900;151.170;2022-11-03T01:34:56;2.00;;;0.50;;
16426;SDS011;8322;-33.900;151.170;2022-11-03T01:37:26;3.75;;;0.50;;
16426;SDS011;8322;-33.900;151.170;2022-11-03T01:39:55;2.65;;;0.65;;
16426;SDS011;8322;-33.900;151.170;2022-11-03T01:42:25;0.70;;;0.47;;
16426;SDS011;8322;-33.900;151.170;2022-11-03T01:44:54;2.13;;;0.70;;
16426;SDS011;8322;-33.900;151.170;2022-11-03T01:47:26;4.28;;;0.60;;
16426;SDS011;8322;-33.900;151.170;2022-11-03T01:49:58;1.60;;;0.55;;
16426;SDS011;8322;-33.900;151.170;2022-11-03T01:52:29;2.63;;;0.47;;
16426;SDS011;8322;-33.900;151.170;2022-11-03T01:55:02;1.85;;;0.50;;
16426;SDS011;8322;-33.900;151.170;2022-11-03T01:57:33;3.00;;;0.60;;
16426;SDS011;8322;-33.900;151.170;2022-11-03T02:00:06;2.17;;;0.60;;
16426;SDS011;8322;-33.900;151.170;2022-11-03T02:02:37;1.67;;;0.57;;
16426;SDS011;8322;-33.900;151.170;2022-11-03T02:05:07;2.50;;;0.50;;
16426;SDS011;8322;-33.900;151.170;2022-11-03T02:07:39;0.50;;;0.45;;
16426;SDS011;8322;-33.900;151.170;2022-11-03T02:10:11;2.55;;;0.60;;
16426;SDS011;8322;-33.900;151.170;2022-11-03T02:12:41;1.85;;;1.50;;
16426;SDS011;8322;-33.900;151.170;2022-11-03T02:15:12;2.53;;;0.65;;
16426;SDS011;8322;-33.900;151.170;2022-11-03T02:17:45;1.17;;;0.40;;
16426;SDS011;8322;-33.900;151.170;2022-11-03T02:20:16;1.27;;;0.40;;
16426;SDS011;8322;-33.900;151.170;2022-11-03T02:25:44;0.63;;;0.40;;
16426;SDS011;8322;-33.900;151.170;2022-11-03T02:28:15;1.13;;;0.40;;
16426;SDS011;8322;-33.900;151.170;2022-11-03T02:30:48;0.52;;;0.43;;
16426;SDS011;8322;-33.900;151.170;2022-11-03T02:33:26;2.25;;;0.60;;
16426;SDS011;8322;-33.900;151.170;2022-11-03T02:35:58;0.40;;;0.40;;
16426;SDS011;8322;-33.900;151.170;2022-11-03T02:38:31;0.88;;;0.40;;
16426;SDS011;8322;-33.900;151.170;2022-11-03T02:41:04;0.57;;;0.40;;
16426;SDS011;8322;-33.900;151.170;2022-11-03T02:43:36;0.85;;;0.50;;
16426;SDS011;8322;-33.900;151.170;2022-11-03T02:46:06;6.10;;;2.58;;
16426;SDS011;8322;-33.900;151.170;2022-11-03T02:48:36;4.18;;;0.68;;
16426;SDS011;8322;-33.900;151.170;2022-11-03T02:51:06;2.10;;;0.60;;
16426;SDS011;8322;-33.900;151.170;2022-11-03T02:53:37;0.47;;;0.40;;
16426;SDS011;8322;-33.900;151.170;2022-11-03T02:56:10;0.40;;;0.40;;
16426;SDS011;8322;-33.900;151.170;2022-11-03T02:58:43;0.68;;;0.40;;
16426;SDS011;8322;-33.900;151.170;2022-11-03T03:01:15;1.98;;;0.50;;
16426;SDS011;8322;-33.900;151.170;2022-11-03T03:03:46;1.77;;;0.60;;
16426;SDS011;8322;-33.900;151.170;2022-11-03T03:06:17;1.52;;;0.90;;
16426;SDS011;8322;-33.900;151.170;2022-11-03T03:08:50;1.75;;;0.57;;
16426;SDS011;8322;-33.900;151.170;2022-11-03T03:11:21;0.50;;;0.50;;
16426;SDS011;8322;-33.900;151.170;2022-11-03T03:14:04;1.33;;;0.47;;
16426;SDS011;8322;-33.900;151.170;2022-11-03T03:16:34;1.73;;;0.80;;
16426;SDS011;8322;-33.900;151.170;2022-11-03T03:19:08;1.27;;;0.55;;
16426;SDS011;8322;-33.900;151.170;2022-11-03T03:21:41;0.77;;;0.52;;
16426;SDS011;8322;-33.900;151.170;2022-11-03T03:24:13;1.60;;;0.70;;
16426;SDS011;8322;-33.900;151.170;2022-11-03T03:26:46;0.73;;;0.40;;
16426;SDS011;8322;-33.900;151.170;2022-11-03T03:29:16;0.63;;;0.60;;
16426;SDS011;8322;-33.900;151.170;2022-11-03T03:31:48;1.67;;;0.60;;
16426;SDS011;8322;-33.900;151.170;2022-11-03T03:34:18;0.57;;;0.38;;
16426;SDS011;8322;-33.900;151.170;2022-11-03T03:36:48;0.80;;;0.40;;
16426;SDS011;8322;-33.900;151.170;2022-11-03T03:39:19;1.92;;;0.60;;
16426;SDS011;8322;-33.900;151.170;2022-11-03T03:41:53;1.20;;;0.50;;
16426;SDS011;8322;-33.900;151.170;2022-11-03T03:44:24;2.85;;;0.80;;
16426;SDS011;8322;-33.900;151.170;2022-11-03T03:46:56;2.67;;;0.52;;
16426;SDS011;8322;-33.900;151.170;2022-11-03T03:49:26;1.80;;;0.60;;
16426;SDS011;8322;-33.900;151.170;2022-11-03T03:51:56;2.92;;;0.75;;
16426;SDS011;8322;-33.900;151.170;2022-11-03T03:54:26;1.30;;;0.80;;
16426;SDS011;8322;-33.900;151.170;2022-11-03T03:56:58;2.40;;;0.60;;
16426;SDS011;8322;-33.900;151.170;2022-11-03T03:59:29;1.92;;;0.73;;
16426;SDS011;8322;-33.900;151.170;2022-11-03T04:01:59;1.50;;;0.50;;
16426;SDS011;8322;-33.900;151.170;2022-11-03T04:04:28;1.88;;;0.60;;
16426;SDS011;8322;-33.900;151.170;2022-11-03T04:06:58;1.55;;;0.50;;
16426;SDS011;8322;-33.900;151.170;2022-11-03T04:09:44;3.15;;;0.70;;
16426;SDS011;8322;-33.900;151.170;2022-11-03T04:12:15;1.75;;;0.90;;
16426;SDS011;8322;-33.900;151.170;2022-11-03T04:15:01;2.20;;;0.60;;
16426;SDS011;8322;-33.900;151.170;2022-11-03T04:17:47;1.20;;;0.60;;
16426;SDS011;8322;-33.900;151.170;2022-11-03T04:20:33;2.38;;;0.57;;
16426;SDS011;8322;-33.900;151.170;2022-11-03T04:23:19;2.53;;;0.60;;
16426;SDS011;8322;-33.900;151.170;2022-11-03T04:25:49;2.03;;;0.47;;
16426;SDS011;8322;-33.900;151.170;2022-11-03T04:28:23;4.03;;;1.30;;
16426;SDS011;8322;-33.900;151.170;2022-11-03T04:30:55;2.47;;;0.60;;
16426;SDS011;8322;-33.900;151.170;2022-11-03T04:33:25;1.20;;;0.40;;
16426;SDS011;8322;-33.900;151.170;2022-11-03T04:35:55;0.52;;;0.40;;
16426;SDS011;8322;-33.900;151.170;2022-11-03T04:38:25;1.23;;;0.65;;
16426;SDS011;8322;-33.900;151.170;2022-11-03T04:40:56;2.08;;;0.60;;
16426;SDS011;8322;-33.900;151.170;2022-11-03T04:43:31;0.90;;;0.52;;
16426;SDS011;8322;-33.900;151.170;2022-11-03T04:46:01;1.25;;;0.50;;
16426;SDS011;8322;-33.900;151.170;2022-11-03T04:48:31;1.05;;;0.60;;
16426;SDS011;8322;-33.900;151.170;2022-11-03T04:51:04;1.67;;;0.60;;
16426;SDS011;8322;-33.900;151.170;2022-11-03T04:53:38;0.40;;;0.40;;
16426;SDS011;8322;-33.900;151.170;2022-11-03T04:56:12;1.17;;;0.40;;
16426;SDS011;8322;-33.900;151.170;2022-11-03T04:58:44;2.97;;;0.70;;
16426;SDS011;8322;-33.900;151.170;2022-11-03T05:01:15;2.38;;;0.43;;
16426;SDS011;8322;-33.900;151.170;2022-11-03T05:03:46;3.80;;;0.43;;
16426;SDS011;8322;-33.900;151.170;2022-11-03T05:06:17;2.20;;;0.65;;
16426;SDS011;8322;-33.900;151.170;2022-11-03T05:08:48;1.15;;;0.60;;
16426;SDS011;8322;-33.900;151.170;2022-11-03T05:11:20;2.42;;;0.50;;
16426;SDS011;8322;-33.900;151.170;2022-11-03T05:13:51;1.17;;;0.70;;
16426;SDS011;8322;-33.900;151.170;2022-11-03T05:16:21;1.50;;;0.50;;
16426;SDS011;8322;-33.900;151.170;2022-11-03T05:18:51;1.75;;;0.52;;
16426;SDS011;8322;-33.900;151.170;2022-11-03T05:21:20;3.00;;;0.93;;
16426;SDS011;8322;-33.900;151.170;2022-11-03T05:23:52;1.65;;;0.65;;
16426;SDS011;8322;-33.900;151.170;2022-11-03T05:26:23;4.60;;;0.80;;
16426;SDS011;8322;-33.900;151.170;2022-11-03T05:28:57;5.35;;;1.10;;
16426;SDS011;8322;-33.900;151.170;2022-11-03T05:31:28;4.07;;;0.93;;
16426;SDS011;8322;-33.900;151.170;2022-11-03T05:33:58;2.40;;;0.90;;
16426;SDS011;8322;-33.900;151.170;2022-11-03T05:36:28;3.25;;;1.10;;
16426;SDS011;8322;-33.900;151.170;2022-11-03T05:39:00;6.50;;;1.05;;
16426;SDS011;8322;-33.900;151.170;2022-11-03T05:41:33;3.30;;;0.70;;
16426;SDS011;8322;-33.900;151.170;2022-11-03T05:44:09;6.28;;;1.15;;
16426;SDS011;8322;-33.900;151.170;2022-11-03T05:46:40;4.10;;;0.90;;
16426;SDS011;8322;-33.900;151.170;2022-11-03T05:49:10;4.10;;;0.90;;
16426;SDS011;8322;-33.900;151.170;2022-11-03T05:51:41;1.80;;;0.70;;
16426;SDS011;8322;-33.900;151.170;2022-11-03T05:54:14;3.65;;;1.08;;
16426;SDS011;8322;-33.900;151.170;2022-11-03T05:56:47;4.53;;;0.98;;
16426;SDS011;8322;-33.900;151.170;2022-11-03T05:59:21;2.97;;;1.10;;
16426;SDS011;8322;-33.900;151.170;2022-11-03T06:01:51;5.60;;;1.08;;
16426;SDS011;8322;-33.900;151.170;2022-11-03T06:04:23;4.60;;;0.88;;
16426;SDS011;8322;-33.900;151.170;2022-11-03T06:06:55;4.53;;;1.20;;
16426;SDS011;8322;-33.900;151.170;2022-11-03T06:09:27;5.78;;;2.08;;
16426;SDS011;8322;-33.900;151.170;2022-11-03T06:11:57;4.72;;;1.00;;
16426;SDS011;8322;-33.900;151.170;2022-11-03T06:14:31;6.32;;;1.20;;
16426;SDS011;8322;-33.900;151.170;2022-11-03T06:17:01;4.07;;;1.00;;
16426;SDS011;8322;-33.900;151.170;2022-11-03T06:19:34;5.13;;;1.42;;
16426;SDS011;8322;-33.900;151.170;2022-11-03T06:22:07;7.30;;;1.20;;
16426;SDS011;8322;-33.900;151.170;2022-11-03T06:24:39;4.57;;;1.00;;
16426;SDS011;8322;-33.900;151.170;2022-11-03T06:27:11;4.82;;;0.90;;
16426;SDS011;8322;-33.900;151.170;2022-11-03T06:29:43;5.70;;;2.00;;
16426;SDS011;8322;-33.900;151.170;2022-11-03T06:32:14;2.40;;;0.77;;
16426;SDS011;8322;-33.900;151.170;2022-11-03T06:34:43;4.20;;;1.00;;
16426;SDS011;8322;-33.900;151.170;2022-11-03T06:37:20;8.77;;;1.25;;
16426;SDS011;8322;-33.900;151.170;2022-11-03T06:39:52;4.70;;;1.10;;
16426;SDS011;8322;-33.900;151.170;2022-11-03T06:42:24;7.13;;;1.25;;
16426;SDS011;8322;-33.900;151.170;2022-11-03T06:44:56;7.35;;;1.27;;
16426;SDS011;8322;-33.900;151.170;2022-11-03T06:47:26;6.30;;;1.02;;
16426;SDS011;8322;-33.900;151.170;2022-11-03T06:49:56;6.05;;;1.60;;
16426;SDS011;8322;-33.900;151.170;2022-11-03T06:52:27;6.38;;;1.23;;
16426;SDS011;8322;-33.900;151.170;2022-11-03T06:55:11;8.38;;;1.15;;
16426;SDS011;8322;-33.900;151.170;2022-11-03T06:57:43;5.78;;;1.30;;
16426;SDS011;8322;-33.900;151.170;2022-11-03T07:00:18;9.38;;;1.50;;
16426;SDS011;8322;-33.900;151.170;2022-11-03T07:02:53;7.30;;;1.27;;
16426;SDS011;8322;-33.900;151.170;2022-11-03T07:05:23;7.07;;;1.45;;
16426;SDS011;8322;-33.900;151.170;2022-11-03T07:07:54;6.82;;;1.92;;
16426;SDS011;8322;-33.900;151.170;2022-11-03T07:10:24;8.38;;;1.35;;
16426;SDS011;8322;-33.900;151.170;2022-11-03T07:12:54;6.05;;;1.25;;
16426;SDS011;8322;-33.900;151.170;2022-11-03T07:15:27;8.52;;;1.65;;
16426;SDS011;8322;-33.900;151.170;2022-11-03T07:17:58;9.18;;;1.30;;
16426;SDS011;8322;-33.900;151.170;2022-11-03T07:20:28;8.07;;;1.65;;
16426;SDS011;8322;-33.900;151.170;2022-11-03T07:22:58;7.45;;;1.75;;
16426;SDS011;8322;-33.900;151.170;2022-11-03T07:25:29;5.32;;;1.27;;
16426;SDS011;8322;-33.900;151.170;2022-11-03T07:27:59;8.30;;;1.63;;
16426;SDS011;8322;-33.900;151.170;2022-11-03T07:30:33;8.35;;;1.40;;
16426;SDS011;8322;-33.900;151.170;2022-11-03T07:33:09;8.95;;;1.63;;
16426;SDS011;8322;-33.900;151.170;2022-11-03T07:35:41;11.18;;;1.77;;
16426;SDS011;8322;-33.900;151.170;2022-11-03T07:38:11;8.30;;;1.70;;
16426;SDS011;8322;-33.900;151.170;2022-11-03T07:40:41;7.45;;;1.50;;
16426;SDS011;8322;-33.900;151.170;2022-11-03T07:43:12;9.10;;;1.80;;
16426;SDS011;8322;-33.900;151.170;2022-11-03T07:45:45;11.48;;;1.90;;
16426;SDS011;8322;-33.900;151.170;2022-11-03T07:48:21;10.23;;;1.45;;
16426;SDS011;8322;-33.900;151.170;2022-11-03T07:50:51;11.85;;;1.70;;
16426;SDS011;8322;-33.900;151.170;2022-11-03T07:53:23;12.65;;;2.00;;
16426;SDS011;8322;-33.900;151.170;2022-11-03T07:55:53;10.13;;;2.20;;
16426;SDS011;8322;-33.900;151.170;2022-11-03T07:58:24;9.73;;;1.48;;
16426;SDS011;8322;-33.900;151.170;2022-11-03T08:00:56;10.60;;;1.85;;
16426;SDS011;8322;-33.900;151.170;2022-11-03T08:03:29;9.38;;;1.55;;
16426;SDS011;8322;-33.900;151.170;2022-11-03T08:06:00;11.25;;;1.67;;
16426;SDS011;8322;-33.900;151.170;2022-11-03T08:08:30;10.32;;;1.70;;
16426;SDS011;8322;-33.900;151.170;2022-11-03T08:11:00;9.90;;;1.48;;
16426;SDS011;8322;-33.900;151.170;2022-11-03T08:13:30;8.27;;;1.63;;
16426;SDS011;8322;-33.900;151.170;2022-11-03T08:16:02;9.48;;;1.63;;
16426;SDS011;8322;-33.900;151.170;2022-11-03T08:18:32;10.88;;;1.73;;
16426;SDS011;8322;-33.900;151.170;2022-11-03T08:21:02;6.72;;;1.27;;
16426;SDS011;8322;-33.900;151.170;2022-11-03T08:23:32;8.63;;;1.77;;
16426;SDS011;8322;-33.900;151.170;2022-11-03T08:26:02;9.90;;;1.70;;
16426;SDS011;8322;-33.900;151.170;2022-11-03T08:28:31;9.30;;;1.73;;
16426;SDS011;8322;-33.900;151.170;2022-11-03T08:31:03;9.00;;;1.67;;
16426;SDS011;8322;-33.900;151.170;2022-11-03T08:33:33;9.23;;;1.70;;
16426;SDS011;8322;-33.900;151.170;2022-11-03T08:36:04;7.95;;;1.48;;
16426;SDS011;8322;-33.900;151.170;2022-11-03T08:38:34;10.20;;;1.83;;
16426;SDS011;8322;-33.900;151.170;2022-11-03T08:41:04;10.45;;;1.63;;
16426;SDS011;8322;-33.900;151.170;2022-11-03T08:43:36;8.50;;;1.63;;
16426;SDS011;8322;-33.900;151.170;2022-11-03T08:46:07;8.25;;;1.85;;
16426;SDS011;8322;-33.900;151.170;2022-11-03T08:48:37;12.20;;;1.80;;
16426;SDS011;8322;-33.900;151.170;2022-11-03T08:51:06;8.30;;;1.60;;
16426;SDS011;8322;-33.900;151.170;2022-11-03T08:53:38;8.10;;;1.80;;
16426;SDS011;8322;-33.900;151.170;2022-11-03T08:56:08;9.13;;;2.13;;
16426;SDS011;8322;-33.900;151.170;2022-11-03T08:58:38;9.88;;;1.88;;
16426;SDS011;8322;-33.900;151.170;2022-11-03T09:01:10;9.95;;;1.98;;
16426;SDS011;8322;-33.900;151.170;2022-11-03T09:03:39;9.82;;;1.80;;
16426;SDS011;8322;-33.900;151.170;2022-11-03T09:06:09;7.95;;;1.75;;
16426;SDS011;8322;-33.900;151.170;2022-11-03T09:08:38;8.88;;;2.00;;
16426;SDS011;8322;-33.900;151.170;2022-11-03T09:11:08;10.00;;;1.92;;
16426;SDS011;8322;-33.900;151.170;2022-11-03T09:13:40;9.43;;;1.70;;
16426;SDS011;8322;-33.900;151.170;2022-11-03T09:16:11;6.40;;;1.50;;
16426;SDS011;8322;-33.900;151.170;2022-11-03T09:18:41;10.27;;;1.83;;
16426;SDS011;8322;-33.900;151.170;2022-11-03T09:21:11;6.85;;;1.70;;
16426;SDS011;8322;-33.900;151.170;2022-11-03T09:23:41;6.75;;;1.65;;
16426;SDS011;8322;-33.900;151.170;2022-11-03T09:26:11;11.32;;;1.90;;
16426;SDS011;8322;-33.900;151.170;2022-11-03T09:28:40;8.38;;;1.70;;
16426;SDS011;8322;-33.900;151.170;2022-11-03T09:31:12;7.15;;;1.80;;
16426;SDS011;8322;-33.900;151.170;2022-11-03T09:33:41;8.68;;;1.67;;
16426;SDS011;8322;-33.900;151.170;2022-11-03T09:36:11;7.35;;;1.48;;
16426;SDS011;8322;-33.900;151.170;2022-11-03T09:38:41;11.15;;;1.98;;
16426;SDS011;8322;-33.900;151.170;2022-11-03T09:41:11;7.45;;;1.85;;
16426;SDS011;8322;-33.900;151.170;2022-11-03T09:43:42;8.98;;;1.63;;
16426;SDS011;8322;-33.900;151.170;2022-11-03T09:46:14;11.13;;;1.70;;
16426;SDS011;8322;-33.900;151.170;2022-11-03T09:48:45;9.52;;;1.50;;
16426;SDS011;8322;-33.900;151.170;2022-11-03T09:51:15;8.00;;;1.58;;
16426;SDS011;8322;-33.900;151.170;2022-11-03T09:53:46;8.00;;;1.80;;
16426;SDS011;8322;-33.900;151.170;2022-11-03T09:56:16;11.65;;;1.70;;
16426;SDS011;8322;-33.900;151.170;2022-11-03T09:58:47;12.23;;;1.70;;
16426;SDS011;8322;-33.900;151.170;2022-11-03T10:01:18;9.38;;;1.80;;
16426;SDS011;8322;-33.900;151.170;2022-11-03T10:03:48;7.75;;;1.52;;
16426;SDS011;8322;-33.900;151.170;2022-11-03T10:06:18;9.07;;;1.80;;
16426;SDS011;8322;-33.900;151.170;2022-11-03T10:08:47;8.35;;;1.60;;
16426;SDS011;8322;-33.900;151.170;2022-11-03T10:11:17;9.68;;;1.83;;
16426;SDS011;8322;-33.900;151.170;2022-11-03T10:13:48;6.22;;;1.45;;
16426;SDS011;8322;-33.900;151.170;2022-11-03T10:16:20;11.18;;;1.70;;
16426;SDS011;8322;-33.900;151.170;2022-11-03T10:18:51;7.47;;;1.60;;
16426;SDS011;8322;-33.900;151.170;2022-11-03T10:21:22;9.13;;;1.90;;
16426;SDS011;8322;-33.900;151.170;2022-11-03T10:23:54;7.90;;;1.88;;
16426;SDS011;8322;-33.900;151.170;2022-11-03T10:26:24;7.53;;;1.60;;
16426;SDS011;8322;-33.900;151.170;2022-11-03T10:29:00;9.43;;;1.80;;
16426;SDS011;8322;-33.900;151.170;2022-11-03T10:31:35;9.68;;;1.90;;
16426;SDS011;8322;-33.900;151.170;2022-11-03T10:34:05;6.18;;;1.42;;
16426;SDS011;8322;-33.900;151.170;2022-11-03T10:37:02;8.32;;;1.90;;
16426;SDS011;8322;-33.900;151.170;2022-11-03T10:39:37;15.00;;;3.28;;
16426;SDS011;8322;-33.900;151.170;2022-11-03T10:42:08;14.07;;;3.55;;
16426;SDS011;8322;-33.900;151.170;2022-11-03T10:44:44;9.32;;;3.05;;
16426;SDS011;8322;-33.900;151.170;2022-11-03T10:47:23;5.82;;;2.17;;
16426;SDS011;8322;-33.900;151.170;2022-11-03T10:49:52;8.05;;;1.80;;
16426;SDS011;8322;-33.900;151.170;2022-11-03T10:52:22;7.88;;;1.90;;
16426;SDS011;8322;-33.900;151.170;2022-11-03T10:54:52;8.63;;;1.45;;
16426;SDS011;8322;-33.900;151.170;2022-11-03T10:57:22;8.30;;;1.60;;
16426;SDS011;8322;-33.900;151.170;2022-11-03T10:59:52;9.70;;;1.95;;
16426;SDS011;8322;-33.900;151.170;2022-11-03T11:02:25;7.60;;;1.92;;
16426;SDS011;8322;-33.900;151.170;2022-11-03T11:04:56;8.95;;;2.10;;
16426;SDS011;8322;-33.900;151.170;2022-11-03T11:07:28;9.68;;;1.83;;
16426;SDS011;8322;-33.900;151.170;2022-11-03T11:10:04;9.75;;;1.92;;
16426;SDS011;8322;-33.900;151.170;2022-11-03T11:12:34;7.25;;;1.75;;
16426;SDS011;8322;-33.900;151.170;2022-11-03T11:17:57;8.27;;;1.55;;
16426;SDS011;8322;-33.900;151.170;2022-11-03T11:20:30;7.82;;;1.80;;
16426;SDS011;8322;-33.900;151.170;2022-11-03T11:26:12;10.63;;;1.90;;
16426;SDS011;8322;-33.900;151.170;2022-11-03T11:28:42;6.53;;;1.52;;
16426;SDS011;8322;-33.900;151.170;2022-11-03T11:39:42;7.60;;;1.55;;
16426;SDS011;8322;-33.900;151.170;2022-11-03T11:42:12;6.72;;;1.80;;
16426;SDS011;8322;-33.900;151.170;2022-11-03T11:44:52;8.32;;;1.60;;
16426;SDS011;8322;-33.900;151.170;2022-11-03T11:47:41;7.97;;;1.65;;
16426;SDS011;8322;-33.900;151.170;2022-11-03T11:50:15;11.75;;;2.10;;
16426;SDS011;8322;-33.900;151.170;2022-11-03T11:52:48;6.68;;;1.10;;
16426;SDS011;8322;-33.900;151.170;2022-11-03T11:55:18;8.20;;;1.45;;
16426;SDS011;8322;-33.900;151.170;2022-11-03T11:57:50;8.75;;;1.95;;
16426;SDS011;8322;-33.900;151.170;2022-11-03T12:00:20;8.25;;;1.65;;
16426;SDS011;8322;-33.900;151.170;2022-11-03T12:02:50;8.93;;;1.55;;
16426;SDS011;8322;-33.900;151.170;2022-11-03T12:05:21;7.30;;;1.48;;
16426;SDS011;8322;-33.900;151.170;2022-11-03T12:07:54;11.25;;;1.85;;
16426;SDS011;8322;-33.900;151.170;2022-11-03T12:10:24;7.57;;;1.55;;
16426;SDS011;8322;-33.900;151.170;2022-11-03T12:12:54;7.05;;;1.90;;
16426;SDS011;8322;-33.900;151.170;2022-11-03T12:18:30;6.72;;;1.70;;
16426;SDS011;8322;-33.900;151.170;2022-11-03T12:21:01;9.60;;;2.42;;
16426;SDS011;8322;-33.900;151.170;2022-11-03T12:23:36;6.78;;;1.88;;
16426;SDS011;8322;-33.900;151.170;2022-11-03T12:26:13;9.48;;;2.00;;
16426;SDS011;8322;-33.900;151.170;2022-11-03T12:28:42;7.55;;;1.70;;
16426;SDS011;8322;-33.900;151.170;2022-11-03T12:31:12;9.98;;;1.77;;
16426;SDS011;8322;-33.900;151.170;2022-11-03T12:33:42;6.50;;;1.75;;
16426;SDS011;8322;-33.900;151.170;2022-11-03T12:36:11;12.05;;;2.20;;
16426;SDS011;8322;-33.900;151.170;2022-11-03T12:38:43;7.05;;;1.95;;
16426;SDS011;8322;-33.900;151.170;2022-11-03T12:41:13;12.05;;;2.15;;
16426;SDS011;8322;-33.900;151.170;2022-11-03T12:43:49;9.88;;;2.42;;
16426;SDS011;8322;-33.900;151.170;2022-11-03T12:46:20;9.13;;;1.88;;
16426;SDS011;8322;-33.900;151.170;2022-11-03T12:48:50;9.57;;;2.00;;
16426;SDS011;8322;-33.900;151.170;2022-11-03T12:51:20;5.80;;;1.80;;
16426;SDS011;8322;-33.900;151.170;2022-11-03T12:53:52;10.13;;;1.80;;
16426;SDS011;8322;-33.900;151.170;2022-11-03T12:56:21;6.95;;;1.83;;
16426;SDS011;8322;-33.900;151.170;2022-11-03T12:58:51;11.98;;;1.98;;
16426;SDS011;8322;-33.900;151.170;2022-11-03T13:01:20;9.10;;;2.00;;
16426;SDS011;8322;-33.900;151.170;2022-11-03T13:03:50;10.63;;;1.88;;
16426;SDS011;8322;-33.900;151.170;2022-11-03T13:06:19;10.50;;;2.33;;
16426;SDS011;8322;-33.900;151.170;2022-11-03T13:08:51;11.20;;;2.08;;
16426;SDS011;8322;-33.900;151.170;2022-11-03T13:11:21;11.65;;;2.45;;
16426;SDS011;8322;-33.900;151.170;2022-11-03T13:14:06;7.97;;;1.90;;
16426;SDS011;8322;-33.900;151.170;2022-11-03T13:16:36;11.32;;;2.10;;
16426;SDS011;8322;-33.900;151.170;2022-11-03T13:19:05;14.93;;;2.30;;
16426;SDS011;8322;-33.900;151.170;2022-11-03T13:21:35;12.07;;;2.58;;
16426;SDS011;8322;-33.900;151.170;2022-11-03T13:24:07;14.63;;;2.33;;
16426;SDS011;8322;-33.900;151.170;2022-11-03T13:26:37;11.93;;;2.20;;
16426;SDS011;8322;-33.900;151.170;2022-11-03T13:29:06;7.13;;;1.80;;
16426;SDS011;8322;-33.900;151.170;2022-11-03T13:31:36;11.00;;;2.17;;
16426;SDS011;8322;-33.900;151.170;2022-11-03T13:34:05;8.32;;;1.90;;
16426;SDS011;8322;-33.900;151.170;2022-11-03T13:36:35;9.07;;;1.90;;
16426;SDS011;8322;-33.900;151.170;2022-11-03T13:39:04;6.90;;;1.70;;
16426;SDS011;8322;-33.900;151.170;2022-11-03T13:41:36;10.70;;;1.90;;
16426;SDS011;8322;-33.900;151.170;2022-11-03T13:44:05;12.20;;;2.22;;
16426;SDS011;8322;-33.900;151.170;2022-11-03T13:46:35;11.15;;;2.20;;
16426;SDS011;8322;-33.900;151.170;2022-11-03T13:49:05;10.68;;;1.77;;
16426;SDS011;8322;-33.900;151.170;2022-11-03T13:51:34;8.35;;;2.20;;
16426;SDS011;8322;-33.900;151.170;2022-11-03T13:54:04;9.65;;;1.75;;
16426;SDS011;8322;-33.900;151.170;2022-11-03T13:56:35;8.93;;;2.15;;
16426;SDS011;8322;-33.900;151.170;2022-11-03T13:59:05;7.00;;;1.90;;
16426;SDS011;8322;-33.900;151.170;2022-11-03T14:01:34;13.02;;;1.98;;
16426;SDS011;8322;-33.900;151.170;2022-11-03T14:04:04;7.47;;;1.60;;
16426;SDS011;8322;-33.900;151.170;2022-11-03T14:06:33;9.52;;;1.58;;
16426;SDS011;8322;-33.900;151.170;2022-11-03T14:09:03;10.30;;;1.90;;
16426;SDS011;8322;-33.900;151.170;2022-11-03T14:11:32;7.07;;;1.70;;
16426;SDS011;8322;-33.900;151.170;2022-11-03T14:14:20;7.50;;;1.45;;
16426;SDS011;8322;-33.900;151.170;2022-11-03T14:16:49;6.82;;;1.58;;
16426;SDS011;8322;-33.900;151.170;2022-11-03T14:19:19;9.10;;;1.88;;
16426;SDS011;8322;-33.900;151.170;2022-11-03T14:21:49;9.85;;;1.40;;
16426;SDS011;8322;-33.900;151.170;2022-11-03T14:24:18;8.35;;;1.73;;
16426;SDS011;8322;-33.900;151.170;2022-11-03T14:26:48;9.15;;;1.60;;
16426;SDS011;8322;-33.900;151.170;2022-11-03T14:29:18;11.55;;;1.70;;
16426;SDS011;8322;-33.900;151.170;2022-11-03T14:31:49;5.10;;;1.60;;
16426;SDS011;8322;-33.900;151.170;2022-11-03T14:34:19;9.00;;;1.67;;
16426;SDS011;8322;-33.900;151.170;2022-11-03T14:36:49;7.47;;;1.70;;
16426;SDS011;8322;-33.900;151.170;2022-11-03T14:39:18;8.52;;;1.52;;
16426;SDS011;8322;-33.900;151.170;2022-11-03T14:41:48;7.60;;;1.42;;
16426;SDS011;8322;-33.900;151.170;2022-11-03T14:44:34;6.95;;;1.30;;
16426;SDS011;8322;-33.900;151.170;2022-11-03T14:47:07;6.25;;;1.20;;
16426;SDS011;8322;-33.900;151.170;2022-11-03T14:49:37;6.93;;;1.30;;
16426;SDS011;8322;-33.900;151.170;2022-11-03T14:52:06;7.18;;;1.67;;
16426;SDS011;8322;-33.900;151.170;2022-11-03T14:54:36;6.25;;;1.55;;
16426;SDS011;8322;-33.900;151.170;2022-11-03T14:57:06;7.05;;;1.58;;
16426;SDS011;8322;-33.900;151.170;2022-11-03T14:59:36;5.30;;;1.40;;
16426;SDS011;8322;-33.900;151.170;2022-11-03T15:02:08;6.13;;;1.38;;
16426;SDS011;8322;-33.900;151.170;2022-11-03T15:04:38;6.00;;;1.65;;
16426;SDS011;8322;-33.900;151.170;2022-11-03T15:07:07;6.30;;;1.38;;